Terminal Aerodrome Forecast
Issued by NWS Blacksburg, VA

Current Version | Previous Version | Graphics & Text | Print | Product List | Glossary On
Versions: 1 2 3 4 5 6 7 8 9 10 11 12 13 14 15 16 17 18 19 20 21 22 23 24 25 26 27 28 29 30 31 32 33 34
108
FTUS41 KRNK 172324
TAFBLF
TAF
KBLF 172324Z 1800/1824 28018G30KT P6SM SKC
     FM180600 VRB04KT P6SM SCT010 BKN035
     FM181000 VRB02KT P6SM BKN010 WS020/27035KT
     FM181300 24010G22KT P6SM BKN040=

USA.gov is the U.S. government's official web portal to all federal, state and local government web resources and services.